Terminal Aerodrome Forecast
Issued by NWS Twin Cities, MN

Current Version | Previous Version | Text Only | Print | Product List | Glossary On
Versions: 1 2 3 4 5 6 7 8 9 10 11 12 13 14 15
278
FTUS43 KMPX 170523
TAFSTC
TAF
KSTC 170523Z 1706/1806 VRB02KT 4SM BR BKN020
      TEMPO 1710/1714 1SM BR BKN008
     FM171500 25004KT P6SM SCT150
     FM180000 20005KT P6SM SCT250=

USA.gov is the U.S. government's official web portal to all federal, state and local government web resources and services.